createdAt,value
2023-01-26T00:02:32.368Z,5.93
2023-01-26T00:06:34.416Z,5.85
2023-01-26T00:10:37.898Z,5.80
2023-01-26T00:14:52.828Z,5.81
2023-01-26T00:18:54.856Z,5.82
2023-01-26T00:22:56.896Z,5.92
2023-01-26T00:26:59.599Z,5.94
2023-01-26T00:31:04.395Z,5.94
2023-01-26T00:35:06.868Z,5.94
2023-01-26T00:39:12.271Z,5.97
2023-01-26T00:43:14.369Z,5.84
2023-01-26T00:47:17.315Z,5.83
2023-01-26T00:51:19.291Z,5.69
2023-01-26T00:55:21.509Z,5.66
2023-01-26T00:59:24.014Z,5.67
2023-01-26T01:03:26.031Z,5.66
2023-01-26T01:07:28.431Z,5.56
2023-01-26T01:11:30.420Z,5.53
2023-01-26T01:15:32.419Z,5.53
2023-01-26T01:19:34.458Z,5.59
2023-01-26T01:23:36.667Z,5.50
2023-01-26T01:27:38.802Z,5.41
2023-01-26T01:31:41.670Z,5.42
2023-01-26T01:35:44.882Z,5.38
2023-01-26T01:39:46.859Z,5.41
2023-01-26T01:43:49.497Z,5.37
2023-01-26T01:47:53.026Z,5.44
2023-01-26T01:51:55.025Z,5.32
2023-01-26T01:55:58.802Z,5.27
2023-01-26T02:00:06.008Z,5.21
2023-01-26T02:04:15.012Z,5.13
2023-01-26T02:08:19.241Z,5.21
2023-01-26T02:12:27.509Z,5.31
2023-01-26T02:16:29.527Z,5.29
2023-01-26T02:20:37.789Z,5.31
2023-01-26T02:24:40.740Z,5.30
2023-01-26T02:28:45.044Z,5.32
2023-01-26T02:32:47.429Z,5.38
2023-01-26T02:37:00.100Z,5.25
2023-01-26T02:41:04.831Z,5.18
2023-01-26T02:45:07.257Z,5.14
2023-01-26T02:49:28.067Z,5.13
2023-01-26T02:53:30.118Z,5.12
2023-01-26T02:57:34.479Z,5.07
2023-01-26T03:01:36.390Z,5.01
2023-01-26T03:05:40.206Z,5.01
2023-01-26T03:09:43.736Z,5.00
2023-01-26T03:13:47.296Z,5.00
2023-01-26T03:17:49.245Z,4.97
2023-01-26T03:22:11.027Z,4.96
2023-01-26T03:26:31.518Z,4.89
2023-01-26T03:30:33.885Z,4.88
2023-01-26T03:34:36.996Z,4.87
2023-01-26T03:38:39.923Z,4.76
2023-01-26T03:43:00.943Z,4.73
2023-01-26T03:47:23.879Z,4.71
2023-01-26T03:51:44.858Z,4.65
2023-01-26T03:56:05.465Z,4.80
2023-01-26T04:00:09.686Z,4.61
2023-01-26T04:04:33.238Z,4.50
2023-01-26T04:08:36.067Z,4.40
2023-01-26T04:12:41.367Z,4.36
2023-01-26T04:17:11.032Z,4.27
2023-01-26T04:21:33.491Z,4.06
2023-01-26T04:25:38.837Z,3.98
2023-01-26T04:29:42.336Z,4.01
2023-01-26T04:33:44.367Z,4.07
2023-01-26T04:37:47.513Z,3.96
2023-01-26T04:41:49.730Z,4.09
2023-01-26T04:46:00.210Z,3.95
2023-01-26T04:50:03.933Z,3.88
2023-01-26T04:54:07.308Z,3.85
2023-01-26T04:58:13.262Z,3.82
2023-01-26T05:02:15.302Z,3.99
2023-01-26T05:06:17.387Z,4.22
2023-01-26T05:10:21.859Z,4.26
2023-01-26T05:14:53.435Z,4.26
2023-01-26T05:19:15.380Z,4.33
2023-01-26T05:23:47.148Z,4.32
2023-01-26T05:28:00.338Z,4.26
2023-01-26T05:32:03.074Z,4.34
2023-01-26T05:36:08.705Z,4.35
2023-01-26T05:40:11.513Z,4.31
2023-01-26T05:44:14.763Z,4.42
2023-01-26T05:48:20.344Z,4.46
2023-01-26T05:52:26.137Z,4.47
2023-01-26T05:56:28.465Z,4.47
2023-01-26T06:00:35.145Z,4.43
2023-01-26T06:04:43.446Z,4.42
2023-01-26T06:08:46.097Z,4.40
2023-01-26T06:13:08.302Z,4.38
2023-01-26T06:17:20.567Z,4.45
2023-01-26T06:21:26.643Z,4.53
2023-01-26T06:25:29.426Z,4.46
2023-01-26T06:29:32.558Z,4.42
2023-01-26T06:33:35.900Z,4.36
2023-01-26T06:37:38.588Z,4.44
2023-01-26T06:41:42.540Z,4.39
2023-01-26T06:45:44.686Z,4.43
2023-01-26T06:49:46.728Z,4.55
2023-01-26T06:53:54.950Z,4.52
2023-01-26T06:58:03.199Z,4.51
2023-01-26T07:02:27.920Z,4.53
2023-01-26T07:06:29.998Z,4.56
2023-01-26T07:10:32.307Z,4.57
2023-01-26T07:14:35.242Z,4.59
2023-01-26T07:18:37.483Z,4.58
2023-01-26T07:22:39.553Z,4.63
2023-01-26T07:26:41.535Z,4.63
2023-01-26T07:30:43.752Z,4.68
2023-01-26T07:34:45.875Z,4.61
2023-01-26T07:38:48.467Z,4.65
2023-01-26T07:42:50.871Z,4.71
2023-01-26T07:46:54.717Z,4.78
2023-01-26T07:51:01.259Z,4.79
2023-01-26T07:55:03.265Z,4.78
2023-01-26T07:59:05.545Z,4.75
2023-01-26T08:03:07.704Z,4.87
2023-01-26T08:07:09.764Z,4.91
2023-01-26T08:11:12.752Z,4.94
2023-01-26T08:15:14.976Z,5.02
2023-01-26T08:19:17.038Z,5.07
2023-01-26T08:23:19.495Z,5.18
2023-01-26T08:27:22.743Z,5.29
2023-01-26T08:31:25.611Z,5.33
2023-01-26T08:35:27.876Z,5.36
2023-01-26T08:39:29.932Z,5.39
2023-01-26T08:43:31.985Z,5.49
2023-01-26T08:47:34.020Z,5.50
2023-01-26T08:51:36.239Z,5.61
2023-01-26T08:55:38.209Z,5.65
2023-01-26T08:59:40.172Z,5.71
2023-01-26T09:03:43.012Z,5.73
2023-01-26T09:07:45.010Z,5.85
2023-01-26T09:11:46.970Z,6.01
2023-01-26T09:15:49.306Z,6.12
2023-01-26T09:19:51.399Z,6.26
2023-01-26T09:23:53.427Z,6.39
2023-01-26T09:27:55.508Z,6.21
2023-01-26T09:31:57.689Z,6.32
2023-01-26T09:36:04.367Z,6.33
2023-01-26T09:40:06.761Z,6.44
2023-01-26T09:44:23.947Z,6.46
2023-01-26T09:48:33.314Z,6.52
2023-01-26T09:52:51.195Z,6.42
2023-01-26T09:56:54.731Z,6.38
2023-01-26T10:01:03.560Z,6.29
2023-01-26T10:05:13.508Z,6.37
2023-01-26T10:09:27.006Z,6.41
2023-01-26T10:13:29.854Z,6.23
2023-01-26T10:17:34.104Z,6.28
2023-01-26T10:21:40.165Z,6.25
2023-01-26T10:25:43.046Z,6.64
2023-01-26T10:29:45.190Z,6.70
2023-01-26T10:33:50.429Z,6.62
2023-01-26T10:37:53.172Z,6.48
2023-01-26T10:42:00.165Z,6.63
2023-01-26T10:46:03.304Z,6.75
2023-01-26T10:50:14.284Z,6.80
2023-01-26T10:54:20.838Z,7.24
2023-01-26T10:58:40.929Z,7.15
2023-01-26T11:02:50.291Z,6.92
2023-01-26T11:06:52.734Z,7.13
2023-01-26T11:10:57.336Z,6.96
2023-01-26T11:15:01.759Z,6.81
2023-01-26T11:19:11.398Z,7.02
2023-01-26T11:23:34.032Z,6.97
2023-01-26T11:27:44.067Z,6.89
2023-01-26T11:32:13.708Z,7.03
2023-01-26T11:36:28.270Z,6.72
2023-01-26T11:40:45.859Z,6.71
2023-01-26T11:44:47.753Z,6.96
2023-01-26T11:48:49.911Z,6.93
2023-01-26T11:52:52.245Z,6.65
2023-01-26T11:57:04.886Z,6.69
2023-01-26T12:01:09.891Z,6.66
2023-01-26T12:05:23.898Z,6.83
2023-01-26T12:09:38.864Z,6.84
2023-01-26T12:13:44.015Z,6.98
2023-01-26T12:18:04.792Z,7.17
2023-01-26T12:22:24.999Z,7.30
2023-01-26T12:26:29.358Z,7.29
2023-01-26T12:30:38.577Z,7.44
2023-01-26T12:34:40.632Z,7.22
2023-01-26T12:39:03.774Z,7.06
2023-01-26T12:43:21.311Z,6.82
2023-01-26T12:47:43.549Z,6.83
2023-01-26T12:51:49.272Z,7.20
2023-01-26T12:55:56.828Z,7.30
2023-01-26T13:00:18.799Z,7.22
2023-01-26T13:04:20.903Z,7.30
2023-01-26T13:08:32.082Z,6.91
2023-01-26T13:12:49.351Z,6.93
2023-01-26T13:16:51.399Z,6.84
2023-01-26T13:20:53.459Z,6.63
2023-01-26T13:24:59.625Z,6.54
2023-01-26T13:29:34.153Z,6.42
2023-01-26T13:33:36.396Z,6.49
2023-01-26T13:37:58.646Z,6.44
2023-01-26T13:42:01.403Z,6.42
2023-01-26T13:46:23.836Z,6.39
2023-01-26T13:50:30.497Z,6.38
2023-01-26T13:54:33.054Z,6.18
2023-01-26T13:58:35.309Z,6.09
2023-01-26T14:02:38.844Z,6.06
2023-01-26T14:06:42.637Z,6.14
2023-01-26T14:10:45.225Z,6.07
2023-01-26T14:14:48.175Z,5.99
2023-01-26T14:18:50.331Z,5.91
2023-01-26T14:23:08.177Z,5.83
2023-01-26T14:27:29.806Z,5.92
2023-01-26T14:31:32.415Z,5.93
2023-01-26T14:35:34.562Z,5.91
2023-01-26T14:39:36.652Z,5.63
2023-01-26T14:43:38.598Z,5.78
2023-01-26T14:47:41.155Z,5.66
2023-01-26T14:51:47.279Z,5.47
2023-01-26T14:55:50.333Z,5.24
2023-01-26T14:59:53.969Z,5.21
2023-01-26T15:04:15.473Z,5.18
2023-01-26T15:08:22.284Z,5.17
2023-01-26T15:12:24.502Z,5.05
2023-01-26T15:16:26.803Z,4.82
2023-01-26T15:20:28.796Z,4.83
2023-01-26T15:24:30.715Z,4.84
2023-01-26T15:28:32.997Z,4.78
2023-01-26T15:32:39.811Z,4.71
2023-01-26T15:36:49.359Z,4.75
2023-01-26T15:40:51.379Z,4.70
2023-01-26T15:44:53.504Z,4.63
2023-01-26T15:48:56.228Z,4.68
2023-01-26T15:52:58.184Z,4.55
2023-01-26T15:57:00.665Z,4.46
2023-01-26T16:01:02.749Z,4.47
2023-01-26T16:05:12.957Z,4.40
2023-01-26T16:09:21.762Z,4.32
2023-01-26T16:13:23.915Z,4.27
2023-01-26T16:17:25.997Z,4.24
2023-01-26T16:21:31.589Z,4.22
2023-01-26T16:25:33.685Z,4.20
2023-01-26T16:29:35.895Z,4.23
2023-01-26T16:33:38.011Z,4.18
2023-01-26T16:37:42.519Z,4.25
2023-01-26T16:41:44.909Z,4.22
2023-01-26T16:45:47.010Z,4.26
2023-01-26T16:49:49.212Z,4.19
2023-01-26T16:53:51.497Z,4.24
2023-01-26T16:57:53.653Z,4.14
2023-01-26T17:01:55.867Z,4.08
2023-01-26T17:05:57.835Z,4.07
2023-01-26T17:09:59.891Z,4.06
2023-01-26T17:14:03.163Z,4.03
2023-01-26T17:18:05.178Z,3.99
2023-01-26T17:22:07.788Z,4.01
2023-01-26T17:26:11.353Z,3.95
2023-01-26T17:30:13.837Z,3.93
2023-01-26T17:34:16.790Z,3.90
2023-01-26T17:38:18.897Z,3.99
2023-01-26T17:42:20.837Z,3.96
2023-01-26T17:46:22.901Z,3.97
2023-01-26T17:50:25.675Z,3.91
2023-01-26T17:54:27.718Z,3.90
2023-01-26T17:58:29.767Z,4.00
2023-01-26T18:02:31.962Z,4.01
2023-01-26T18:06:34.052Z,4.00
2023-01-26T18:10:35.999Z,3.97
2023-01-26T18:14:37.971Z,3.89
2023-01-26T18:18:40.438Z,3.94
2023-01-26T18:22:43.896Z,3.93
2023-01-26T18:26:46.021Z,3.91
2023-01-26T18:30:48.614Z,3.89
2023-01-26T18:34:51.756Z,3.92
2023-01-26T18:38:55.591Z,3.91
2023-01-26T18:42:58.039Z,3.92
2023-01-26T18:47:00.579Z,3.97
2023-01-26T18:51:03.939Z,4.01
2023-01-26T18:55:06.175Z,3.96
2023-01-26T18:59:12.604Z,3.93
2023-01-26T19:03:14.759Z,3.95
2023-01-26T19:07:16.725Z,4.00
2023-01-26T19:11:18.662Z,3.98
2023-01-26T19:15:20.671Z,3.99
2023-01-26T19:19:22.712Z,3.97
2023-01-26T19:23:24.793Z,4.00
2023-01-26T19:27:26.740Z,4.00
2023-01-26T19:31:29.288Z,4.09
2023-01-26T19:35:31.517Z,4.05
2023-01-26T19:39:33.578Z,4.10
2023-01-26T19:43:36.218Z,4.11
2023-01-26T19:47:39.067Z,4.05
2023-01-26T19:51:41.470Z,4.01
2023-01-26T19:55:43.673Z,4.06
2023-01-26T19:59:45.897Z,4.15
2023-01-26T20:03:51.892Z,4.12
2023-01-26T20:07:54.150Z,4.12
2023-01-26T20:11:56.349Z,4.04
2023-01-26T20:15:58.403Z,4.07
2023-01-26T20:20:00.408Z,4.02
2023-01-26T20:24:06.749Z,4.14
2023-01-26T20:28:09.216Z,4.16
2023-01-26T20:32:11.160Z,4.21
2023-01-26T20:36:16.559Z,4.24
2023-01-26T20:40:18.694Z,4.23
2023-01-26T20:44:20.684Z,4.21
2023-01-26T20:48:22.756Z,4.17
2023-01-26T20:52:25.359Z,4.23
2023-01-26T20:56:27.792Z,4.22
2023-01-26T21:00:29.791Z,4.28
2023-01-26T21:04:32.484Z,4.17
2023-01-26T21:08:36.711Z,4.17
2023-01-26T21:12:38.749Z,4.18
2023-01-26T21:16:40.908Z,4.15
2023-01-26T21:20:42.851Z,4.16
2023-01-26T21:24:44.893Z,4.13
2023-01-26T21:28:51.234Z,4.10
2023-01-26T21:32:53.277Z,4.00
2023-01-26T21:36:55.347Z,3.83
2023-01-26T21:40:57.906Z,3.51
2023-01-26T21:45:18.659Z,3.17
2023-01-26T21:49:21.271Z,3.06
2023-01-26T21:53:23.475Z,2.96
2023-01-26T21:57:44.045Z,2.81
2023-01-26T22:01:47.319Z,2.77
2023-01-26T22:05:53.490Z,2.73
2023-01-26T22:09:56.348Z,2.72
2023-01-26T22:13:58.664Z,2.82
2023-01-26T22:18:00.724Z,2.81
2023-01-26T22:22:03.857Z,2.79
2023-01-26T22:26:07.194Z,2.82
2023-01-26T22:30:09.982Z,2.87
2023-01-26T22:34:12.289Z,2.84
2023-01-26T22:38:14.367Z,2.99
2023-01-26T22:42:16.340Z,3.06
2023-01-26T22:46:19.452Z,3.23
2023-01-26T22:50:21.604Z,3.24
2023-01-26T22:54:23.833Z,3.32
2023-01-26T22:58:25.760Z,3.41
2023-01-26T23:02:27.882Z,3.59
2023-01-26T23:06:30.199Z,3.68
2023-01-26T23:10:32.660Z,3.76
2023-01-26T23:14:34.754Z,3.84
2023-01-26T23:18:37.118Z,3.87
2023-01-26T23:22:39.074Z,4.00
2023-01-26T23:26:41.178Z,4.04
2023-01-26T23:30:43.232Z,4.12
2023-01-26T23:34:45.238Z,4.22
2023-01-26T23:38:47.405Z,4.19
2023-01-26T23:43:03.676Z,4.22
2023-01-26T23:47:09.373Z,4.27
2023-01-26T23:51:11.805Z,4.18
2023-01-26T23:55:13.999Z,4.10
2023-01-26T23:59:15.986Z,4.12
